Terminal Aerodrome Forecast
Issued by NWS

Home | Current Version | Previous Version | Graphics & Text | Print | Product List | Glossary On
Versions: 1 2 3 4 5 6 7 8 9 10 11 12 13 14 15 16 17 18 19
000
FTUS43 KMPX 222300 RRA
TAFRWF
TAF
KRWF 222344Z 2300/2324 10011KT 5SM -RA BR OVC008
     FM230500 09012KT 3SM -SN BR OVC009
     FM231100 03014KT 1 1/2SM -SN BR OVC005
      TEMPO 2315/2318 1SM -SN BR VV003
     FM231900 35012KT 5SM -SN OVC006=

USA.gov is the U.S. government's official web portal to all federal, state and local government web resources and services.